KMVY

Martha's Vineyard Airport

Airport
ICAO code
KMVY
Summary
ICAO Region
NAM
ICAO Territory
Location

Vineyard Haven, Massachusetts,

Coordinates
41° 23' 27" N , 70° 36' 51" W
KCC
Airport BS
Bird Strike
Airport WX
Cumulonimbus
Metar
KMVY 191153Z 06007KT 10SM OVC055 08/06 A3020 RMK AO2 SLP225 60001 70001 T00780061 10078 20067 53008

Description

Martha's Vineyard Airport is a public airport located in the middle of the island of Martha's Vineyard, 5 km south of the central business district of Vineyard Haven, in Dukes County, Massachusetts.

Climatology

Humid continental climate with a strong maritime influence (Köppen climate classification Dfb/Cfb) Precipitation amounts are fairly consistent from month to month regardless of the time of year. Due to the strong oceanic influence, summers on Martha's Vineyard are cooler and winters are warmer than on the mainland.

Runways

Designator Length Width Surface Rops
1/19 968 23 ASP No/No
15/33 1005 23 ASP Yes/Yes
6/24 1678 30 ASP Yes/Yes

Airport map

Aerial View

SKYbrary Partners:

Safety knowledge contributed by: